sensor_id;sensor_type;location;lat;lon;timestamp;temperature;humidity
33943;DHT22;66763;47.856;17.462;2023-03-03T00:02:10;11.40;46.70
33943;DHT22;66763;47.856;17.462;2023-03-03T00:04:35;11.40;46.70
33943;DHT22;66763;47.856;17.462;2023-03-03T00:07:01;11.40;46.70
33943;DHT22;66763;47.856;17.462;2023-03-03T00:09:26;11.40;46.70
33943;DHT22;66763;47.856;17.462;2023-03-03T00:11:53;11.40;46.70
33943;DHT22;66763;47.856;17.462;2023-03-03T00:14:24;11.30;46.70
33943;DHT22;66763;47.856;17.462;2023-03-03T00:16:52;11.40;46.70
33943;DHT22;66763;47.856;17.462;2023-03-03T00:19:18;11.40;46.70
33943;DHT22;66763;47.856;17.462;2023-03-03T00:21:45;11.40;46.70
33943;DHT22;66763;47.856;17.462;2023-03-03T00:24:15;11.40;46.70
33943;DHT22;66763;47.856;17.462;2023-03-03T00:26:46;11.30;46.70
33943;DHT22;66763;47.856;17.462;2023-03-03T00:31:43;11.30;46.70
33943;DHT22;66763;47.856;17.462;2023-03-03T00:36:40;11.30;46.70
33943;DHT22;66763;47.856;17.462;2023-03-03T00:39:21;11.30;46.70
33943;DHT22;66763;47.856;17.462;2023-03-03T00:41:47;11.30;46.70
33943;DHT22;66763;47.856;17.462;2023-03-03T00:44:55;11.30;46.70
33943;DHT22;66763;47.856;17.462;2023-03-03T00:49:46;11.30;46.70
33943;DHT22;66763;47.856;17.462;2023-03-03T00:52:12;11.30;46.70
33943;DHT22;66763;47.856;17.462;2023-03-03T00:54:39;11.30;46.70
33943;DHT22;66763;47.856;17.462;2023-03-03T00:57:04;11.30;46.70
33943;DHT22;66763;47.856;17.462;2023-03-03T00:59:29;11.30;46.70
33943;DHT22;66763;47.856;17.462;2023-03-03T01:01:55;11.30;46.60
33943;DHT22;66763;47.856;17.462;2023-03-03T01:04:20;11.30;46.70
33943;DHT22;66763;47.856;17.462;2023-03-03T01:06:46;11.30;46.70
33943;DHT22;66763;47.856;17.462;2023-03-03T01:09:12;11.30;46.70
33943;DHT22;66763;47.856;17.462;2023-03-03T01:11:37;11.30;46.70
33943;DHT22;66763;47.856;17.462;2023-03-03T01:14:02;11.20;46.60
33943;DHT22;66763;47.856;17.462;2023-03-03T01:16:28;11.30;46.70
33943;DHT22;66763;47.856;17.462;2023-03-03T01:18:54;11.20;46.70
33943;DHT22;66763;47.856;17.462;2023-03-03T01:21:19;11.20;46.70
33943;DHT22;66763;47.856;17.462;2023-03-03T01:23:45;11.20;46.70
33943;DHT22;66763;47.856;17.462;2023-03-03T01:26:10;11.20;46.70
33943;DHT22;66763;47.856;17.462;2023-03-03T01:28:36;11.20;46.70
33943;DHT22;66763;47.856;17.462;2023-03-03T01:31:02;11.20;46.70
33943;DHT22;66763;47.856;17.462;2023-03-03T01:33:28;11.20;46.70
33943;DHT22;66763;47.856;17.462;2023-03-03T01:35:53;11.20;46.60
33943;DHT22;66763;47.856;17.462;2023-03-03T01:38:19;11.20;46.70
33943;DHT22;66763;47.856;17.462;2023-03-03T01:40:51;11.20;46.70
33943;DHT22;66763;47.856;17.462;2023-03-03T01:43:16;11.20;46.70
33943;DHT22;66763;47.856;17.462;2023-03-03T01:48:17;11.20;46.70
33943;DHT22;66763;47.856;17.462;2023-03-03T01:50:47;11.20;46.60
33943;DHT22;66763;47.856;17.462;2023-03-03T01:53:17;11.20;46.70
33943;DHT22;66763;47.856;17.462;2023-03-03T01:55:43;11.10;46.60
33943;DHT22;66763;47.856;17.462;2023-03-03T01:58:11;11.20;46.70
33943;DHT22;66763;47.856;17.462;2023-03-03T02:00:39;11.20;46.70
33943;DHT22;66763;47.856;17.462;2023-03-03T02:03:05;11.20;46.60
33943;DHT22;66763;47.856;17.462;2023-03-03T02:05:31;11.10;46.60
33943;DHT22;66763;47.856;17.462;2023-03-03T02:07:56;11.10;46.60
33943;DHT22;66763;47.856;17.462;2023-03-03T02:10:22;11.20;46.70
33943;DHT22;66763;47.856;17.462;2023-03-03T02:12:51;11.20;46.70
33943;DHT22;66763;47.856;17.462;2023-03-03T02:15:22;11.20;46.70
33943;DHT22;66763;47.856;17.462;2023-03-03T02:17:49;11.20;46.60
33943;DHT22;66763;47.856;17.462;2023-03-03T02:25:10;11.20;47.00
33943;DHT22;66763;47.856;17.462;2023-03-03T02:27:38;11.30;46.90
33943;DHT22;66763;47.856;17.462;2023-03-03T02:30:11;11.60;46.70
33943;DHT22;66763;47.856;17.462;2023-03-03T02:32:38;11.80;46.40
33943;DHT22;66763;47.856;17.462;2023-03-03T02:35:24;12.00;46.10
33943;DHT22;66763;47.856;17.462;2023-03-03T02:37:49;12.20;45.70
33943;DHT22;66763;47.856;17.462;2023-03-03T02:40:16;12.40;45.30
33943;DHT22;66763;47.856;17.462;2023-03-03T02:42:42;12.60;45.10
33943;DHT22;66763;47.856;17.462;2023-03-03T02:45:08;12.70;44.90
33943;DHT22;66763;47.856;17.462;2023-03-03T02:47:34;12.80;44.60
33943;DHT22;66763;47.856;17.462;2023-03-03T02:49:59;13.00;44.50
33943;DHT22;66763;47.856;17.462;2023-03-03T02:52:25;13.10;44.30
33943;DHT22;66763;47.856;17.462;2023-03-03T02:54:50;13.20;44.20
33943;DHT22;66763;47.856;17.462;2023-03-03T02:57:15;13.20;44.10
33943;DHT22;66763;47.856;17.462;2023-03-03T02:59:41;13.30;43.90
33943;DHT22;66763;47.856;17.462;2023-03-03T03:02:06;13.30;43.80
33943;DHT22;66763;47.856;17.462;2023-03-03T03:04:33;13.30;43.70
33943;DHT22;66763;47.856;17.462;2023-03-03T03:06:58;13.30;43.80
33943;DHT22;66763;47.856;17.462;2023-03-03T03:09:24;13.30;43.80
33943;DHT22;66763;47.856;17.462;2023-03-03T03:11:50;13.30;43.90
33943;DHT22;66763;47.856;17.462;2023-03-03T03:14:16;13.30;44.00
33943;DHT22;66763;47.856;17.462;2023-03-03T03:16:42;13.20;44.10
33943;DHT22;66763;47.856;17.462;2023-03-03T03:19:07;13.20;44.10
33943;DHT22;66763;47.856;17.462;2023-03-03T03:21:33;13.10;44.20
33943;DHT22;66763;47.856;17.462;2023-03-03T03:23:58;13.10;44.20
33943;DHT22;66763;47.856;17.462;2023-03-03T03:26:24;13.10;44.40
33943;DHT22;66763;47.856;17.462;2023-03-03T03:28:50;13.00;44.40
33943;DHT22;66763;47.856;17.462;2023-03-03T03:31:16;13.00;44.60
33943;DHT22;66763;47.856;17.462;2023-03-03T03:33:42;12.90;44.60
33943;DHT22;66763;47.856;17.462;2023-03-03T03:36:08;12.90;44.70
33943;DHT22;66763;47.856;17.462;2023-03-03T03:38:34;12.80;44.80
33943;DHT22;66763;47.856;17.462;2023-03-03T03:41:01;12.70;44.90
33943;DHT22;66763;47.856;17.462;2023-03-03T03:43:26;12.70;44.90
33943;DHT22;66763;47.856;17.462;2023-03-03T03:45:52;12.70;45.00
33943;DHT22;66763;47.856;17.462;2023-03-03T03:48:17;12.60;45.10
33943;DHT22;66763;47.856;17.462;2023-03-03T03:50:45;12.60;45.20
33943;DHT22;66763;47.856;17.462;2023-03-03T03:53:11;12.50;45.20
33943;DHT22;66763;47.856;17.462;2023-03-03T03:55:36;12.50;45.30
33943;DHT22;66763;47.856;17.462;2023-03-03T03:58:02;12.50;45.40
33943;DHT22;66763;47.856;17.462;2023-03-03T04:00:27;12.40;45.40
33943;DHT22;66763;47.856;17.462;2023-03-03T04:02:52;12.40;45.50
33943;DHT22;66763;47.856;17.462;2023-03-03T04:05:18;12.30;45.50
33943;DHT22;66763;47.856;17.462;2023-03-03T04:07:43;12.30;45.60
33943;DHT22;66763;47.856;17.462;2023-03-03T04:10:09;12.20;45.70
33943;DHT22;66763;47.856;17.462;2023-03-03T04:12:35;12.20;45.70
33943;DHT22;66763;47.856;17.462;2023-03-03T04:15:06;12.20;45.80
33943;DHT22;66763;47.856;17.462;2023-03-03T04:17:32;12.10;45.80
33943;DHT22;66763;47.856;17.462;2023-03-03T04:19:57;12.10;45.80
33943;DHT22;66763;47.856;17.462;2023-03-03T04:22:23;12.10;45.90
33943;DHT22;66763;47.856;17.462;2023-03-03T04:24:48;12.10;45.90
33943;DHT22;66763;47.856;17.462;2023-03-03T04:27:14;12.10;46.00
33943;DHT22;66763;47.856;17.462;2023-03-03T04:29:40;12.00;46.00
33943;DHT22;66763;47.856;17.462;2023-03-03T04:32:05;12.00;46.10
33943;DHT22;66763;47.856;17.462;2023-03-03T04:34:31;12.00;46.10
33943;DHT22;66763;47.856;17.462;2023-03-03T04:36:56;12.00;46.10
33943;DHT22;66763;47.856;17.462;2023-03-03T04:39:22;12.00;46.10
33943;DHT22;66763;47.856;17.462;2023-03-03T04:41:47;12.00;46.10
33943;DHT22;66763;47.856;17.462;2023-03-03T04:44:13;12.00;46.10
33943;DHT22;66763;47.856;17.462;2023-03-03T04:46:38;11.90;46.10
33943;DHT22;66763;47.856;17.462;2023-03-03T04:49:04;12.00;46.10
33943;DHT22;66763;47.856;17.462;2023-03-03T04:51:32;11.90;46.00
33943;DHT22;66763;47.856;17.462;2023-03-03T04:53:57;12.00;46.10
33943;DHT22;66763;47.856;17.462;2023-03-03T04:56:23;11.90;46.10
33943;DHT22;66763;47.856;17.462;2023-03-03T04:58:48;11.90;46.10
33943;DHT22;66763;47.856;17.462;2023-03-03T05:01:14;11.90;46.10
33943;DHT22;66763;47.856;17.462;2023-03-03T05:03:39;11.90;46.10
33943;DHT22;66763;47.856;17.462;2023-03-03T05:06:05;11.90;46.10
33943;DHT22;66763;47.856;17.462;2023-03-03T05:08:31;11.90;46.10
33943;DHT22;66763;47.856;17.462;2023-03-03T05:10:56;11.90;46.10
33943;DHT22;66763;47.856;17.462;2023-03-03T05:13:24;11.90;46.10
33943;DHT22;66763;47.856;17.462;2023-03-03T05:15:52;11.90;46.10
33943;DHT22;66763;47.856;17.462;2023-03-03T05:18:18;11.90;46.10
33943;DHT22;66763;47.856;17.462;2023-03-03T05:20:44;11.90;46.10
33943;DHT22;66763;47.856;17.462;2023-03-03T05:23:09;11.90;46.10
33943;DHT22;66763;47.856;17.462;2023-03-03T05:25:35;11.80;46.00
33943;DHT22;66763;47.856;17.462;2023-03-03T05:28:00;11.80;46.00
33943;DHT22;66763;47.856;17.462;2023-03-03T05:30:26;11.80;46.00
33943;DHT22;66763;47.856;17.462;2023-03-03T05:32:51;11.80;46.10
33943;DHT22;66763;47.856;17.462;2023-03-03T05:35:17;11.80;46.00
33943;DHT22;66763;47.856;17.462;2023-03-03T05:37:44;11.80;46.00
33943;DHT22;66763;47.856;17.462;2023-03-03T05:40:14;11.80;46.00
33943;DHT22;66763;47.856;17.462;2023-03-03T05:42:40;11.80;46.00
33943;DHT22;66763;47.856;17.462;2023-03-03T05:45:06;11.70;45.90
33943;DHT22;66763;47.856;17.462;2023-03-03T05:47:32;11.80;46.00
33943;DHT22;66763;47.856;17.462;2023-03-03T05:49:57;11.70;45.90
33943;DHT22;66763;47.856;17.462;2023-03-03T05:52:23;11.70;45.90
33943;DHT22;66763;47.856;17.462;2023-03-03T05:54:48;11.70;45.90
33943;DHT22;66763;47.856;17.462;2023-03-03T05:57:14;11.70;46.00
33943;DHT22;66763;47.856;17.462;2023-03-03T05:59:39;11.70;45.90
33943;DHT22;66763;47.856;17.462;2023-03-03T06:02:05;11.70;46.00
33943;DHT22;66763;47.856;17.462;2023-03-03T06:04:30;11.70;46.00
33943;DHT22;66763;47.856;17.462;2023-03-03T06:06:56;11.60;46.50
33943;DHT22;66763;47.856;17.462;2023-03-03T06:09:21;11.60;45.90
33943;DHT22;66763;47.856;17.462;2023-03-03T06:11:47;11.60;46.00
33943;DHT22;66763;47.856;17.462;2023-03-03T06:14:12;11.60;46.00
33943;DHT22;66763;47.856;17.462;2023-03-03T06:16:38;11.60;46.00
33943;DHT22;66763;47.856;17.462;2023-03-03T06:19:03;11.60;46.00
33943;DHT22;66763;47.856;17.462;2023-03-03T06:21:29;11.60;46.00
33943;DHT22;66763;47.856;17.462;2023-03-03T06:23:55;11.60;46.00
33943;DHT22;66763;47.856;17.462;2023-03-03T06:26:20;11.60;46.00
33943;DHT22;66763;47.856;17.462;2023-03-03T06:28:46;11.60;46.00
33943;DHT22;66763;47.856;17.462;2023-03-03T06:31:12;11.60;46.00
33943;DHT22;66763;47.856;17.462;2023-03-03T06:33:37;11.50;45.90
33943;DHT22;66763;47.856;17.462;2023-03-03T06:36:03;11.50;46.00
33943;DHT22;66763;47.856;17.462;2023-03-03T06:38:28;11.50;46.00
33943;DHT22;66763;47.856;17.462;2023-03-03T06:40:54;11.60;46.00
33943;DHT22;66763;47.856;17.462;2023-03-03T06:43:19;11.50;46.00
33943;DHT22;66763;47.856;17.462;2023-03-03T06:45:45;11.50;46.00
33943;DHT22;66763;47.856;17.462;2023-03-03T06:48:11;11.50;46.00
33943;DHT22;66763;47.856;17.462;2023-03-03T06:50:36;11.50;46.00
33943;DHT22;66763;47.856;17.462;2023-03-03T06:53:10;11.50;46.00
33943;DHT22;66763;47.856;17.462;2023-03-03T06:55:36;11.50;46.00
33943;DHT22;66763;47.856;17.462;2023-03-03T06:58:04;11.50;46.00
33943;DHT22;66763;47.856;17.462;2023-03-03T07:00:30;11.40;45.90
33943;DHT22;66763;47.856;17.462;2023-03-03T07:02:59;11.50;46.00
33943;DHT22;66763;47.856;17.462;2023-03-03T07:05:26;11.40;45.90
33943;DHT22;66763;47.856;17.462;2023-03-03T07:07:54;11.40;46.00
33943;DHT22;66763;47.856;17.462;2023-03-03T07:10:23;11.40;46.00
33943;DHT22;66763;47.856;17.462;2023-03-03T07:12:49;11.40;46.00
33943;DHT22;66763;47.856;17.462;2023-03-03T07:17:42;11.40;46.00
33943;DHT22;66763;47.856;17.462;2023-03-03T07:20:18;11.40;46.00
33943;DHT22;66763;47.856;17.462;2023-03-03T07:22:44;11.40;46.00
33943;DHT22;66763;47.856;17.462;2023-03-03T07:25:20;11.40;46.00
33943;DHT22;66763;47.856;17.462;2023-03-03T07:27:46;11.40;46.10
33943;DHT22;66763;47.856;17.462;2023-03-03T07:32:41;11.40;46.00
33943;DHT22;66763;47.856;17.462;2023-03-03T07:37:51;11.40;46.10
33943;DHT22;66763;47.856;17.462;2023-03-03T07:42:45;11.40;46.10
33943;DHT22;66763;47.856;17.462;2023-03-03T07:45:21;11.40;46.10
33943;DHT22;66763;47.856;17.462;2023-03-03T07:47:47;11.40;46.10
33943;DHT22;66763;47.856;17.462;2023-03-03T07:50:13;11.40;46.10
33943;DHT22;66763;47.856;17.462;2023-03-03T07:53:41;11.30;46.10
33943;DHT22;66763;47.856;17.462;2023-03-03T07:55:37;11.30;46.00
33943;DHT22;66763;47.856;17.462;2023-03-03T08:03:20;11.30;46.10
33943;DHT22;66763;47.856;17.462;2023-03-03T08:05:46;11.30;46.00
33943;DHT22;66763;47.856;17.462;2023-03-03T08:10:51;11.30;46.10
33943;DHT22;66763;47.856;17.462;2023-03-03T08:13:21;11.30;46.10
33943;DHT22;66763;47.856;17.462;2023-03-03T08:16:34;11.30;46.10
33943;DHT22;66763;47.856;17.462;2023-03-03T08:21:08;11.30;46.10
33943;DHT22;66763;47.856;17.462;2023-03-03T08:23:35;11.30;46.20
33943;DHT22;66763;47.856;17.462;2023-03-03T08:26:00;11.30;46.10
33943;DHT22;66763;47.856;17.462;2023-03-03T08:28:26;11.30;46.00
33943;DHT22;66763;47.856;17.462;2023-03-03T08:30:51;11.30;46.10
33943;DHT22;66763;47.856;17.462;2023-03-03T08:33:17;11.30;46.10
33943;DHT22;66763;47.856;17.462;2023-03-03T08:35:43;11.30;46.20
33943;DHT22;66763;47.856;17.462;2023-03-03T08:38:09;11.30;46.10
33943;DHT22;66763;47.856;17.462;2023-03-03T08:40:35;11.20;46.10
33943;DHT22;66763;47.856;17.462;2023-03-03T08:43:00;11.20;46.10
33943;DHT22;66763;47.856;17.462;2023-03-03T08:45:26;11.20;46.20
33943;DHT22;66763;47.856;17.462;2023-03-03T08:47:52;11.20;46.20
33943;DHT22;66763;47.856;17.462;2023-03-03T08:50:17;11.20;46.20
33943;DHT22;66763;47.856;17.462;2023-03-03T08:52:43;11.20;46.20
33943;DHT22;66763;47.856;17.462;2023-03-03T08:55:09;11.30;46.20
33943;DHT22;66763;47.856;17.462;2023-03-03T08:57:35;11.20;46.20
33943;DHT22;66763;47.856;17.462;2023-03-03T09:00:01;11.20;46.20
33943;DHT22;66763;47.856;17.462;2023-03-03T09:02:26;11.20;46.30
33943;DHT22;66763;47.856;17.462;2023-03-03T09:04:52;11.20;46.30
33943;DHT22;66763;47.856;17.462;2023-03-03T09:07:17;11.20;46.10
33943;DHT22;66763;47.856;17.462;2023-03-03T09:09:43;11.20;46.20
33943;DHT22;66763;47.856;17.462;2023-03-03T09:12:51;11.20;46.20
33943;DHT22;66763;47.856;17.462;2023-03-03T09:14:58;11.20;46.20
33943;DHT22;66763;47.856;17.462;2023-03-03T09:22:52;11.20;46.30
33943;DHT22;66763;47.856;17.462;2023-03-03T09:25:21;11.20;46.30
33943;DHT22;66763;47.856;17.462;2023-03-03T09:27:47;11.20;46.40
33943;DHT22;66763;47.856;17.462;2023-03-03T09:32:50;11.20;46.40
33943;DHT22;66763;47.856;17.462;2023-03-03T09:37:54;11.20;46.40
33943;DHT22;66763;47.856;17.462;2023-03-03T09:43:15;11.20;46.40
33943;DHT22;66763;47.856;17.462;2023-03-03T09:53:36;11.20;46.50
33943;DHT22;66763;47.856;17.462;2023-03-03T09:58:34;11.20;46.50
33943;DHT22;66763;47.856;17.462;2023-03-03T10:06:21;11.10;46.40
33943;DHT22;66763;47.856;17.462;2023-03-03T10:09:01;11.10;46.40
33943;DHT22;66763;47.856;17.462;2023-03-03T10:21:42;11.10;46.60
33943;DHT22;66763;47.856;17.462;2023-03-03T10:29:18;11.10;46.50
33943;DHT22;66763;47.856;17.462;2023-03-03T10:32:08;11.10;46.60
33943;DHT22;66763;47.856;17.462;2023-03-03T10:34:53;11.10;46.60
33943;DHT22;66763;47.856;17.462;2023-03-03T10:37:23;11.10;46.60
33943;DHT22;66763;47.856;17.462;2023-03-03T10:49:59;11.10;46.70
33943;DHT22;66763;47.856;17.462;2023-03-03T10:55:15;11.10;46.60
33943;DHT22;66763;47.856;17.462;2023-03-03T10:57:51;11.10;46.60
33943;DHT22;66763;47.856;17.462;2023-03-03T11:00:30;11.10;46.60
33943;DHT22;66763;47.856;17.462;2023-03-03T11:05:42;11.40;46.50
33943;DHT22;66763;47.856;17.462;2023-03-03T11:15:53;12.30;45.40
33943;DHT22;66763;47.856;17.462;2023-03-03T11:23:57;12.80;44.60
33943;DHT22;66763;47.856;17.462;2023-03-03T11:26:44;12.90;44.50
33943;DHT22;66763;47.856;17.462;2023-03-03T11:39:45;13.30;43.90
33943;DHT22;66763;47.856;17.462;2023-03-03T11:44:51;13.30;44.00
33943;DHT22;66763;47.856;17.462;2023-03-03T11:49:49;13.30;44.10
33943;DHT22;66763;47.856;17.462;2023-03-03T11:52:23;13.20;44.10
33943;DHT22;66763;47.856;17.462;2023-03-03T12:04:55;13.00;44.50
33943;DHT22;66763;47.856;17.462;2023-03-03T12:12:42;12.90;44.70
33943;DHT22;66763;47.856;17.462;2023-03-03T12:15:21;12.90;44.80
33943;DHT22;66763;47.856;17.462;2023-03-03T12:25:50;12.60;45.10
33943;DHT22;66763;47.856;17.462;2023-03-03T12:28:24;12.60;45.20
33943;DHT22;66763;47.856;17.462;2023-03-03T12:40:53;12.40;45.60
33943;DHT22;66763;47.856;17.462;2023-03-03T12:46:18;12.30;45.70
33943;DHT22;66763;47.856;17.462;2023-03-03T12:48:45;12.30;45.80
33943;DHT22;66763;47.856;17.462;2023-03-03T12:56:34;12.20;45.90
33943;DHT22;66763;47.856;17.462;2023-03-03T12:59:08;12.10;46.00
33943;DHT22;66763;47.856;17.462;2023-03-03T13:04:49;12.10;46.10
33943;DHT22;66763;47.856;17.462;2023-03-03T13:11:52;12.00;46.30
33943;DHT22;66763;47.856;17.462;2023-03-03T13:19:19;11.90;46.90
33943;DHT22;66763;47.856;17.462;2023-03-03T13:26:41;12.00;46.40
33943;DHT22;66763;47.856;17.462;2023-03-03T13:31:46;12.00;46.30
33943;DHT22;66763;47.856;17.462;2023-03-03T13:34:17;12.00;46.30
33943;DHT22;66763;47.856;17.462;2023-03-03T13:36:50;12.00;46.30
33943;DHT22;66763;47.856;17.462;2023-03-03T13:41:55;11.90;46.30
33943;DHT22;66763;47.856;17.462;2023-03-03T13:44:28;11.90;46.30
33943;DHT22;66763;47.856;17.462;2023-03-03T13:52:19;11.90;46.30
33943;DHT22;66763;47.856;17.462;2023-03-03T14:04:53;11.90;46.40
33943;DHT22;66763;47.856;17.462;2023-03-03T14:07:33;11.90;46.40
33943;DHT22;66763;47.856;17.462;2023-03-03T14:12:57;11.80;46.40
33943;DHT22;66763;47.856;17.462;2023-03-03T14:15:30;11.80;46.40
33943;DHT22;66763;47.856;17.462;2023-03-03T14:18:02;11.90;46.50
33943;DHT22;66763;47.856;17.462;2023-03-03T14:20:31;11.80;46.50
33943;DHT22;66763;47.856;17.462;2023-03-03T14:23:00;11.80;46.40
33943;DHT22;66763;47.856;17.462;2023-03-03T14:25:26;11.80;46.40
33943;DHT22;66763;47.856;17.462;2023-03-03T14:28:11;11.80;46.40
33943;DHT22;66763;47.856;17.462;2023-03-03T14:30:39;11.80;46.40
33943;DHT22;66763;47.856;17.462;2023-03-03T14:35:35;11.80;46.40
33943;DHT22;66763;47.856;17.462;2023-03-03T14:38:02;11.80;46.40
33943;DHT22;66763;47.856;17.462;2023-03-03T14:40:31;11.80;46.40
33943;DHT22;66763;47.856;17.462;2023-03-03T14:42:58;11.80;46.40
33943;DHT22;66763;47.856;17.462;2023-03-03T14:45:35;11.80;46.30
33943;DHT22;66763;47.856;17.462;2023-03-03T14:48:20;11.80;46.30
33943;DHT22;66763;47.856;17.462;2023-03-03T14:50:51;11.80;46.40
33943;DHT22;66763;47.856;17.462;2023-03-03T14:55:43;11.70;46.40
33943;DHT22;66763;47.856;17.462;2023-03-03T15:03:36;11.70;46.50
33943;DHT22;66763;47.856;17.462;2023-03-03T15:06:09;11.70;46.40
33943;DHT22;66763;47.856;17.462;2023-03-03T15:08:36;11.70;46.40
33943;DHT22;66763;47.856;17.462;2023-03-03T15:11:17;11.70;46.40
33943;DHT22;66763;47.856;17.462;2023-03-03T15:13:43;11.70;46.40
33943;DHT22;66763;47.856;17.462;2023-03-03T15:21:25;11.70;46.50
33943;DHT22;66763;47.856;17.462;2023-03-03T15:24:05;11.70;46.50
33943;DHT22;66763;47.856;17.462;2023-03-03T15:26:46;11.70;46.50
33943;DHT22;66763;47.856;17.462;2023-03-03T15:29:19;11.70;46.60
33943;DHT22;66763;47.856;17.462;2023-03-03T15:34:39;11.70;46.50
33943;DHT22;66763;47.856;17.462;2023-03-03T15:39:45;11.70;46.60
33943;DHT22;66763;47.856;17.462;2023-03-03T15:42:13;11.70;46.50
33943;DHT22;66763;47.856;17.462;2023-03-03T15:55:48;11.60;47.10
33943;DHT22;66763;47.856;17.462;2023-03-03T16:00:54;11.60;46.50
33943;DHT22;66763;47.856;17.462;2023-03-03T16:04:03;11.60;46.50
33943;DHT22;66763;47.856;17.462;2023-03-03T16:06:15;11.70;46.50
33943;DHT22;66763;47.856;17.462;2023-03-03T16:08:45;11.60;46.50
33943;DHT22;66763;47.856;17.462;2023-03-03T16:11:14;11.60;46.50
33943;DHT22;66763;47.856;17.462;2023-03-03T16:23:55;11.60;46.50
33943;DHT22;66763;47.856;17.462;2023-03-03T16:36:51;11.60;46.60
33943;DHT22;66763;47.856;17.462;2023-03-03T16:39:21;11.60;46.60
33943;DHT22;66763;47.856;17.462;2023-03-03T16:41:54;11.60;46.60
33943;DHT22;66763;47.856;17.462;2023-03-03T16:46:48;11.60;46.60
33943;DHT22;66763;47.856;17.462;2023-03-03T16:51:54;11.60;46.60
33943;DHT22;66763;47.856;17.462;2023-03-03T16:54:33;11.60;46.60
33943;DHT22;66763;47.856;17.462;2023-03-03T16:59:41;11.50;46.60
33943;DHT22;66763;47.856;17.462;2023-03-03T17:04:58;11.50;46.60
33943;DHT22;66763;47.856;17.462;2023-03-03T17:07:42;11.50;46.60
33943;DHT22;66763;47.856;17.462;2023-03-03T17:10:27;11.50;46.60
33943;DHT22;66763;47.856;17.462;2023-03-03T17:18:13;11.50;46.70
33943;DHT22;66763;47.856;17.462;2023-03-03T17:20:48;11.50;46.70
33943;DHT22;66763;47.856;17.462;2023-03-03T17:25:52;11.40;46.70
33943;DHT22;66763;47.856;17.462;2023-03-03T17:30:57;11.50;46.70
33943;DHT22;66763;47.856;17.462;2023-03-03T17:33:40;11.50;46.70
33943;DHT22;66763;47.856;17.462;2023-03-03T17:43:47;11.50;46.70
33943;DHT22;66763;47.856;17.462;2023-03-03T17:46:35;11.50;46.70
33943;DHT22;66763;47.856;17.462;2023-03-03T17:49:27;11.50;46.70
33943;DHT22;66763;47.856;17.462;2023-03-03T18:04:46;11.40;46.70
33943;DHT22;66763;47.856;17.462;2023-03-03T18:07:19;11.50;46.80
33943;DHT22;66763;47.856;17.462;2023-03-03T18:12:42;11.40;46.80
33943;DHT22;66763;47.856;17.462;2023-03-03T18:22:43;11.40;46.80
33943;DHT22;66763;47.856;17.462;2023-03-03T18:25:11;11.40;46.80
33943;DHT22;66763;47.856;17.462;2023-03-03T18:27:38;11.40;46.80
33943;DHT22;66763;47.856;17.462;2023-03-03T18:32:45;11.40;46.80
33943;DHT22;66763;47.856;17.462;2023-03-03T18:35:45;11.40;46.90
33943;DHT22;66763;47.856;17.462;2023-03-03T18:40:52;11.40;46.90
33943;DHT22;66763;47.856;17.462;2023-03-03T18:46:02;11.40;46.90
33943;DHT22;66763;47.856;17.462;2023-03-03T18:51:11;11.30;46.90
33943;DHT22;66763;47.856;17.462;2023-03-03T18:54:02;11.40;47.00
33943;DHT22;66763;47.856;17.462;2023-03-03T18:57:03;11.40;47.00
33943;DHT22;66763;47.856;17.462;2023-03-03T19:04:35;11.40;46.90
33943;DHT22;66763;47.856;17.462;2023-03-03T19:07:23;11.30;47.00
33943;DHT22;66763;47.856;17.462;2023-03-03T19:10:05;11.30;46.90
33943;DHT22;66763;47.856;17.462;2023-03-03T19:15:06;11.30;47.00
33943;DHT22;66763;47.856;17.462;2023-03-03T19:22:39;11.30;46.90
33943;DHT22;66763;47.856;17.462;2023-03-03T19:27:38;11.30;47.00
33943;DHT22;66763;47.856;17.462;2023-03-03T19:30:12;11.30;46.90
33943;DHT22;66763;47.856;17.462;2023-03-03T19:43:38;11.30;47.00
33943;DHT22;66763;47.856;17.462;2023-03-03T19:46:16;11.30;47.00
33943;DHT22;66763;47.856;17.462;2023-03-03T19:48:49;11.30;46.90
33943;DHT22;66763;47.856;17.462;2023-03-03T19:51:24;11.30;47.00
33943;DHT22;66763;47.856;17.462;2023-03-03T20:09:27;11.30;47.10
33943;DHT22;66763;47.856;17.462;2023-03-03T20:14:28;11.30;47.10
33943;DHT22;66763;47.856;17.462;2023-03-03T20:17:00;11.20;47.10
33943;DHT22;66763;47.856;17.462;2023-03-03T20:19:49;11.20;47.10
33943;DHT22;66763;47.856;17.462;2023-03-03T20:30:15;11.20;47.10
33943;DHT22;66763;47.856;17.462;2023-03-03T20:38:03;11.20;47.20
33943;DHT22;66763;47.856;17.462;2023-03-03T20:46:06;11.20;47.20
33943;DHT22;66763;47.856;17.462;2023-03-03T20:51:28;11.20;47.30
33943;DHT22;66763;47.856;17.462;2023-03-03T20:54:05;11.20;47.20
33943;DHT22;66763;47.856;17.462;2023-03-03T20:56:51;11.20;47.20
33943;DHT22;66763;47.856;17.462;2023-03-03T21:04:34;11.20;47.20
33943;DHT22;66763;47.856;17.462;2023-03-03T21:07:02;11.20;47.20
33943;DHT22;66763;47.856;17.462;2023-03-03T21:11:59;11.20;47.20
33943;DHT22;66763;47.856;17.462;2023-03-03T21:14:29;11.20;47.20
33943;DHT22;66763;47.856;17.462;2023-03-03T21:16:57;11.20;47.20
33943;DHT22;66763;47.856;17.462;2023-03-03T21:19:29;11.20;47.10
33943;DHT22;66763;47.856;17.462;2023-03-03T21:21:55;11.20;47.20
33943;DHT22;66763;47.856;17.462;2023-03-03T21:24:21;11.20;47.20
33943;DHT22;66763;47.856;17.462;2023-03-03T21:29:20;11.20;47.20
33943;DHT22;66763;47.856;17.462;2023-03-03T21:31:49;11.20;47.20
33943;DHT22;66763;47.856;17.462;2023-03-03T21:34:16;11.20;47.10
33943;DHT22;66763;47.856;17.462;2023-03-03T21:39:27;11.20;47.10
33943;DHT22;66763;47.856;17.462;2023-03-03T21:41:57;11.20;47.10
33943;DHT22;66763;47.856;17.462;2023-03-03T21:44:33;11.20;47.10
33943;DHT22;66763;47.856;17.462;2023-03-03T21:46:59;11.20;47.10
33943;DHT22;66763;47.856;17.462;2023-03-03T21:49:25;11.20;47.00
33943;DHT22;66763;47.856;17.462;2023-03-03T21:51:51;11.20;47.10
33943;DHT22;66763;47.856;17.462;2023-03-03T21:54:16;11.20;47.10
33943;DHT22;66763;47.856;17.462;2023-03-03T21:56:42;11.20;47.10
33943;DHT22;66763;47.856;17.462;2023-03-03T21:59:07;11.10;47.00
33943;DHT22;66763;47.856;17.462;2023-03-03T22:01:33;11.20;47.00
33943;DHT22;66763;47.856;17.462;2023-03-03T22:03:59;11.20;47.00
33943;DHT22;66763;47.856;17.462;2023-03-03T22:06:24;11.20;47.10
33943;DHT22;66763;47.856;17.462;2023-03-03T22:08:50;11.20;47.00
33943;DHT22;66763;47.856;17.462;2023-03-03T22:11:15;11.20;47.20